Shreveport Regional Airport
KSHV : rendu visible

Aérodrome :











RETROUVEZ-NOUS SUR...

 
LOGIN :

S'inscrire | Disclaimer

   EN    FR    IT 

 









Légende :    VFR   VFR Marginal   IFR   IFR Intensif   IFR Très Intensif
Visi : 
Plafond : 
>= 8 km
>= 3000ft
5 à 8 km
1000 à 3000 ft
1500m à 5 km
500 à 1000 ft
800 à 1500m
200 à 500 ft
< 800m
< 200 ft
Symboles :   Orages  Brouillard  Fortes neiges  Fortes précipitations  Vent > 20 kt







- Altitude de l'aérodrome : 258 ft
- Code IATA : SHV


KSHV - Shreveport Regional

DERNIER METAR :
  • 240656Z 16006KT 10SM CLR 22/20 A3004 RMK AO2 SLP168 T02220200

METARs EXPIRÉS :
  • 240556Z 18006KT 10SM CLR 24/21 A3004 RMK AO2 SLP169 T02390206 10311 20239 403330233 50004
  • 240456Z 17009KT 10SM CLR 25/21 A3004 RMK AO2 SLP170 T02500206

TAF KSHV
Valide du 24 à 06h jusqu'au 25 à 06h UTC


240522Z 2406/2506 16006KT P6SM SKC
TEMPO 2412/2415 BKN015
FM241500 19007KT P6SM BKN035
FM241700 18008KT P6SM BKN045
FM241900 18008KT P6SM SCT050
FM250000 16007KT P6SM FEW060
FIR KZFW / Amérique du Nord



MET'MAP, la Météo Aéronautique d'un coup d'oeil ! - Copyright ORBIFLY Décembre 2007 - Disclaimer

ORBIFLY MET'MAP TEAM :

Programmation & Développement : Alexandra Zaïnal
Conception & Développement : Baudouin d'Aumeries
Co-Programmation & Développement : Marc-Olivier Méhu
Soutien technique & logistique : Manuel Goepfert

Contact : metmap@orbifly.com




SOURCES & CREDITS :

   NOAA       Earth
Advisory